NCAR-RAP Real-Time Weather Data

Output produced by METARs form (10 April 2020  06:02 UTC)
found at http://weather.rap.ucar.edu/surface/
 
KBWG 100553Z AUTO VRB06G22KT 10SM CLR 08/M03 A2998 RMK AO2 PK WND 35028/0503 SLP150 T00781028 10150 20078 401720078 53034
KBWG 100453Z AUTO 33009G18KT 10SM CLR 11/M06 A2991 RMK AO2 SLP127 T01111056
KBWG 100353Z AUTO 30007KT 10SM CLR 12/M06 A2988 RMK AO2 SLP116 T01221061
KBWG 100253Z AUTO 30010G18KT 260V320 10SM CLR 12/M02 A2987 RMK AO2 SLP114 T01221022 53018
KBWG 100153Z AUTO 25003KT 10SM CLR 12/M01 A2984 RMK AO2 SLP102 T01171006
KBWG 100053Z AUTO 27003KT 10SM CLR 13/M02 A2982 RMK AO2 SLP097 T01331017
KBWG 092353Z AUTO 29006KT 10SM FEW120 15/M03 A2982 RMK AO2 SLP096 T01501028 10172 20150 56001
KBWG 092253Z AUTO 28010KT 10SM CLR 16/M03 A2982 RMK AO2 SLP098 T01611033
KBWG 092153Z AUTO 30011G17KT 9SM FEW110 17/M03 A2982 RMK AO2 SLP094 T01671028
KBWG 092053Z AUTO 28012G24KT 10SM CLR 17/M03 A2983 RMK AO2 WSHFT 1940 SLP097 T01671033 58020
KBWG 092000Z AUTO 30011G19KT 10SM CLR 17/M02 A2984 RMK AO2 WSHFT 1940 T01721017
KBWG 091953Z AUTO 29012G21KT 10SM CLR 17/M02 A2984 RMK AO2 SLP102 T01721017
KBWG 091853Z AUTO 29009G19KT 10SM CLR 16/M03 A2987 RMK AO2 SLP113 T01611028
KBWG 091753Z AUTO 32009G25KT 10SM CLR 16/M04 A2989 RMK AO2 PK WND 30029/1734 SLP118 T01561039 10161 20117 58017
KBWG 091653Z AUTO 29012G20KT 10SM CLR 16/M03 A2992 RMK AO2 SLP129 T01561033
KBWG 091553Z AUTO 32009G20KT 10SM CLR 14/M03 A2993 RMK AO2 SLP133 T01441028
KBWG 091453Z AUTO 34010G20KT 320V020 10SM CLR 14/M04 A2994 RMK AO2 SLP135 T01391039 51017
KBWG 091353Z AUTO 32009G15KT 10SM CLR 13/01 A2994 RMK AO2 SLP133 T01330006
KBWG 091253Z AUTO 10SM CLR 12/03 A2993 RMK AO2 SLP131 T01220028
KBWG 091153Z AUTO 32007G21KT 280V360 10SM CLR 12/05 A2988 RMK AO2 SLP116 70002 T01170050 10172 20117 53050
KBWG 091129Z AUTO 31008G24KT 10SM SCT025 12/06 A2987 RMK AO2 PRESRR T01220056
KBWG 091118Z AUTO 32011G23KT 10SM BKN024 13/07 A2986 RMK AO2 PRESRR T01280067
KBWG 091053Z AUTO 32012G22KT 10SM SCT025 13/07 A2983 RMK AO2 PK WND 31027/1033 PRESRR SLP097 T01330072
KBWG 091031Z AUTO 31013G23KT 10SM SCT026 14/08 A2981 RMK AO2 PRESRR T01390078
KBWG 091024Z AUTO 32012G22KT 10SM BKN024 14/09 A2980 RMK AO2 PRESRR T01440089
KBWG 090953Z AUTO 32008G16KT 10SM SCT027 BKN110 16/11 A2977 RMK AO2 SLP074 T01610111
KBWG 090853Z AUTO 31005KT 10SM OVC065 17/12 A2973 RMK AO2 SLP064 T01720122 51019
KBWG 090753Z AUTO 29005KT 10SM SCT048 BKN065 OVC080 17/13 A2973 RMK AO2 SLP063 T01720128